sensor_id;sensor_type;location;lat;lon;timestamp;temperature;humidity
25138;DHT22;13112;50.986;4.354;2022-07-23T00:01:00;17.30;99.90
25138;DHT22;13112;50.986;4.354;2022-07-23T00:03:25;17.30;99.90
25138;DHT22;13112;50.986;4.354;2022-07-23T00:05:52;17.40;99.90
25138;DHT22;13112;50.986;4.354;2022-07-23T00:08:17;17.30;99.90
25138;DHT22;13112;50.986;4.354;2022-07-23T00:10:43;17.20;99.90
25138;DHT22;13112;50.986;4.354;2022-07-23T00:13:09;17.10;99.90
25138;DHT22;13112;50.986;4.354;2022-07-23T00:15:35;17.10;99.90
25138;DHT22;13112;50.986;4.354;2022-07-23T00:18:00;17.10;99.90
25138;DHT22;13112;50.986;4.354;2022-07-23T00:20:26;17.10;99.90
25138;DHT22;13112;50.986;4.354;2022-07-23T00:22:54;17.00;99.90
25138;DHT22;13112;50.986;4.354;2022-07-23T00:25:21;17.00;99.90
25138;DHT22;13112;50.986;4.354;2022-07-23T00:27:47;17.00;99.90
25138;DHT22;13112;50.986;4.354;2022-07-23T00:30:13;17.00;99.90
25138;DHT22;13112;50.986;4.354;2022-07-23T00:32:47;16.90;99.90
25138;DHT22;13112;50.986;4.354;2022-07-23T00:35:12;16.90;99.90
25138;DHT22;13112;50.986;4.354;2022-07-23T00:37:38;16.80;99.90
25138;DHT22;13112;50.986;4.354;2022-07-23T00:40:04;16.70;99.90
25138;DHT22;13112;50.986;4.354;2022-07-23T00:42:31;16.70;99.90
25138;DHT22;13112;50.986;4.354;2022-07-23T00:44:57;16.60;99.90
25138;DHT22;13112;50.986;4.354;2022-07-23T00:47:22;16.50;99.90
25138;DHT22;13112;50.986;4.354;2022-07-23T00:49:48;16.40;99.90
25138;DHT22;13112;50.986;4.354;2022-07-23T00:52:14;16.30;99.90
25138;DHT22;13112;50.986;4.354;2022-07-23T00:54:39;16.30;99.90
25138;DHT22;13112;50.986;4.354;2022-07-23T00:57:05;16.30;99.90
25138;DHT22;13112;50.986;4.354;2022-07-23T00:59:31;16.20;99.90
25138;DHT22;13112;50.986;4.354;2022-07-23T01:01:57;16.30;99.90
25138;DHT22;13112;50.986;4.354;2022-07-23T01:04:22;16.20;99.90
25138;DHT22;13112;50.986;4.354;2022-07-23T01:06:48;16.10;99.90
25138;DHT22;13112;50.986;4.354;2022-07-23T01:09:14;16.20;99.90
25138;DHT22;13112;50.986;4.354;2022-07-23T01:11:41;16.20;99.90
25138;DHT22;13112;50.986;4.354;2022-07-23T01:14:18;16.20;99.90
25138;DHT22;13112;50.986;4.354;2022-07-23T01:16:45;16.20;99.90
25138;DHT22;13112;50.986;4.354;2022-07-23T01:19:11;16.10;99.90
25138;DHT22;13112;50.986;4.354;2022-07-23T01:21:43;15.90;99.90
25138;DHT22;13112;50.986;4.354;2022-07-23T01:24:10;15.90;99.90
25138;DHT22;13112;50.986;4.354;2022-07-23T01:26:37;15.90;99.90
25138;DHT22;13112;50.986;4.354;2022-07-23T01:29:04;16.00;99.90
25138;DHT22;13112;50.986;4.354;2022-07-23T01:31:30;16.10;99.90
25138;DHT22;13112;50.986;4.354;2022-07-23T01:33:55;16.10;99.90
25138;DHT22;13112;50.986;4.354;2022-07-23T01:36:21;16.10;99.90
25138;DHT22;13112;50.986;4.354;2022-07-23T01:38:48;16.10;99.90
25138;DHT22;13112;50.986;4.354;2022-07-23T01:41:13;16.10;99.90
25138;DHT22;13112;50.986;4.354;2022-07-23T01:43:39;16.00;99.90
25138;DHT22;13112;50.986;4.354;2022-07-23T01:46:05;16.00;99.90
25138;DHT22;13112;50.986;4.354;2022-07-23T01:48:31;16.00;99.90
25138;DHT22;13112;50.986;4.354;2022-07-23T01:50:56;15.90;99.90
25138;DHT22;13112;50.986;4.354;2022-07-23T01:53:22;15.80;99.90
25138;DHT22;13112;50.986;4.354;2022-07-23T01:55:48;15.70;99.90
25138;DHT22;13112;50.986;4.354;2022-07-23T01:58:14;15.70;99.90
25138;DHT22;13112;50.986;4.354;2022-07-23T02:00:39;15.70;99.90
25138;DHT22;13112;50.986;4.354;2022-07-23T02:03:05;15.60;99.90
25138;DHT22;13112;50.986;4.354;2022-07-23T02:05:31;15.60;99.90
25138;DHT22;13112;50.986;4.354;2022-07-23T02:07:58;15.70;99.90
25138;DHT22;13112;50.986;4.354;2022-07-23T02:10:24;15.60;99.90
25138;DHT22;13112;50.986;4.354;2022-07-23T02:12:49;15.60;99.90
25138;DHT22;13112;50.986;4.354;2022-07-23T02:15:15;15.60;99.90
25138;DHT22;13112;50.986;4.354;2022-07-23T02:17:41;15.60;99.90
25138;DHT22;13112;50.986;4.354;2022-07-23T02:20:08;15.60;99.90
25138;DHT22;13112;50.986;4.354;2022-07-23T02:22:34;15.60;99.90
25138;DHT22;13112;50.986;4.354;2022-07-23T02:25:00;15.60;99.90
25138;DHT22;13112;50.986;4.354;2022-07-23T02:27:25;15.60;99.90
25138;DHT22;13112;50.986;4.354;2022-07-23T02:29:51;15.50;99.90
25138;DHT22;13112;50.986;4.354;2022-07-23T02:32:17;15.50;99.90
25138;DHT22;13112;50.986;4.354;2022-07-23T02:34:43;15.50;99.90
25138;DHT22;13112;50.986;4.354;2022-07-23T02:37:08;15.50;99.90
25138;DHT22;13112;50.986;4.354;2022-07-23T02:39:35;15.50;99.90
25138;DHT22;13112;50.986;4.354;2022-07-23T02:42:01;15.40;99.90
25138;DHT22;13112;50.986;4.354;2022-07-23T02:44:27;15.40;99.90
25138;DHT22;13112;50.986;4.354;2022-07-23T02:46:52;15.40;99.90
25138;DHT22;13112;50.986;4.354;2022-07-23T02:49:18;15.30;99.90
25138;DHT22;13112;50.986;4.354;2022-07-23T02:51:43;15.30;99.90
25138;DHT22;13112;50.986;4.354;2022-07-23T02:54:09;15.30;99.90
25138;DHT22;13112;50.986;4.354;2022-07-23T02:56:35;15.30;99.90
25138;DHT22;13112;50.986;4.354;2022-07-23T02:59:00;15.20;99.90
25138;DHT22;13112;50.986;4.354;2022-07-23T03:01:26;15.10;99.90
25138;DHT22;13112;50.986;4.354;2022-07-23T03:03:52;15.10;99.90
25138;DHT22;13112;50.986;4.354;2022-07-23T03:06:18;15.10;99.90
25138;DHT22;13112;50.986;4.354;2022-07-23T03:08:43;15.10;99.90
25138;DHT22;13112;50.986;4.354;2022-07-23T03:11:09;15.20;99.90
25138;DHT22;13112;50.986;4.354;2022-07-23T03:13:40;15.10;99.90
25138;DHT22;13112;50.986;4.354;2022-07-23T03:16:06;15.10;99.90
25138;DHT22;13112;50.986;4.354;2022-07-23T03:18:32;15.10;99.90
25138;DHT22;13112;50.986;4.354;2022-07-23T03:20:58;15.00;99.90
25138;DHT22;13112;50.986;4.354;2022-07-23T03:23:24;15.00;99.90
25138;DHT22;13112;50.986;4.354;2022-07-23T03:25:49;14.90;99.90
25138;DHT22;13112;50.986;4.354;2022-07-23T03:28:16;15.00;99.90
25138;DHT22;13112;50.986;4.354;2022-07-23T03:30:45;14.90;99.90
25138;DHT22;13112;50.986;4.354;2022-07-23T03:33:12;14.70;99.90
25138;DHT22;13112;50.986;4.354;2022-07-23T03:35:38;14.50;99.90
25138;DHT22;13112;50.986;4.354;2022-07-23T03:38:04;14.60;99.90
25138;DHT22;13112;50.986;4.354;2022-07-23T03:40:29;14.70;99.90
25138;DHT22;13112;50.986;4.354;2022-07-23T03:42:55;14.80;99.90
25138;DHT22;13112;50.986;4.354;2022-07-23T03:45:21;14.80;99.90
25138;DHT22;13112;50.986;4.354;2022-07-23T03:47:46;14.80;99.90
25138;DHT22;13112;50.986;4.354;2022-07-23T03:50:12;14.80;99.90
25138;DHT22;13112;50.986;4.354;2022-07-23T03:52:38;14.80;99.90
25138;DHT22;13112;50.986;4.354;2022-07-23T03:55:04;14.90;99.90
25138;DHT22;13112;50.986;4.354;2022-07-23T03:57:30;14.90;99.90
25138;DHT22;13112;50.986;4.354;2022-07-23T03:59:55;14.90;99.90
25138;DHT22;13112;50.986;4.354;2022-07-23T04:02:21;14.90;99.90
25138;DHT22;13112;50.986;4.354;2022-07-23T04:04:47;14.90;99.90
25138;DHT22;13112;50.986;4.354;2022-07-23T04:07:13;14.90;99.90
25138;DHT22;13112;50.986;4.354;2022-07-23T04:09:39;14.90;99.90
25138;DHT22;13112;50.986;4.354;2022-07-23T04:12:07;14.90;99.90
25138;DHT22;13112;50.986;4.354;2022-07-23T04:14:33;14.90;99.90
25138;DHT22;13112;50.986;4.354;2022-07-23T04:16:59;15.00;99.90
25138;DHT22;13112;50.986;4.354;2022-07-23T04:19:25;15.00;99.90
25138;DHT22;13112;50.986;4.354;2022-07-23T04:21:51;15.00;99.90
25138;DHT22;13112;50.986;4.354;2022-07-23T04:24:17;15.00;99.90
25138;DHT22;13112;50.986;4.354;2022-07-23T04:26:44;15.00;99.90
25138;DHT22;13112;50.986;4.354;2022-07-23T04:29:10;15.00;99.90
25138;DHT22;13112;50.986;4.354;2022-07-23T04:31:35;15.00;99.90
25138;DHT22;13112;50.986;4.354;2022-07-23T04:34:01;14.90;99.90
25138;DHT22;13112;50.986;4.354;2022-07-23T04:36:27;15.00;99.90
25138;DHT22;13112;50.986;4.354;2022-07-23T04:38:53;15.00;99.90
25138;DHT22;13112;50.986;4.354;2022-07-23T04:41:19;15.00;99.90
25138;DHT22;13112;50.986;4.354;2022-07-23T04:43:44;15.00;99.90
25138;DHT22;13112;50.986;4.354;2022-07-23T04:46:10;15.10;99.90
25138;DHT22;13112;50.986;4.354;2022-07-23T04:48:36;15.10;99.90
25138;DHT22;13112;50.986;4.354;2022-07-23T04:51:01;15.20;99.90
25138;DHT22;13112;50.986;4.354;2022-07-23T04:53:27;15.10;99.90
25138;DHT22;13112;50.986;4.354;2022-07-23T04:55:53;15.20;99.90
25138;DHT22;13112;50.986;4.354;2022-07-23T04:58:19;15.30;99.90
25138;DHT22;13112;50.986;4.354;2022-07-23T05:00:45;15.50;99.90
25138;DHT22;13112;50.986;4.354;2022-07-23T05:03:11;15.60;99.90
25138;DHT22;13112;50.986;4.354;2022-07-23T05:05:37;15.70;99.90
25138;DHT22;13112;50.986;4.354;2022-07-23T05:08:02;15.80;99.90
25138;DHT22;13112;50.986;4.354;2022-07-23T05:10:28;15.90;99.90
25138;DHT22;13112;50.986;4.354;2022-07-23T05:12:54;16.00;99.90
25138;DHT22;13112;50.986;4.354;2022-07-23T05:15:19;16.10;99.90
25138;DHT22;13112;50.986;4.354;2022-07-23T05:17:45;16.20;99.90
25138;DHT22;13112;50.986;4.354;2022-07-23T05:20:11;16.40;99.90
25138;DHT22;13112;50.986;4.354;2022-07-23T05:22:36;16.60;99.90
25138;DHT22;13112;50.986;4.354;2022-07-23T05:25:02;16.90;99.90
25138;DHT22;13112;50.986;4.354;2022-07-23T05:27:30;17.10;99.90
25138;DHT22;13112;50.986;4.354;2022-07-23T05:29:55;17.30;99.90
25138;DHT22;13112;50.986;4.354;2022-07-23T05:32:22;17.60;99.90
25138;DHT22;13112;50.986;4.354;2022-07-23T05:34:47;17.90;99.90
25138;DHT22;13112;50.986;4.354;2022-07-23T05:37:13;18.10;99.90
25138;DHT22;13112;50.986;4.354;2022-07-23T05:39:39;18.30;99.90
25138;DHT22;13112;50.986;4.354;2022-07-23T05:42:04;18.60;99.90
25138;DHT22;13112;50.986;4.354;2022-07-23T05:44:30;18.70;99.90
25138;DHT22;13112;50.986;4.354;2022-07-23T05:46:56;18.90;99.90
25138;DHT22;13112;50.986;4.354;2022-07-23T05:49:21;19.10;99.90
25138;DHT22;13112;50.986;4.354;2022-07-23T05:51:47;19.10;99.90
25138;DHT22;13112;50.986;4.354;2022-07-23T05:54:13;19.20;99.90
25138;DHT22;13112;50.986;4.354;2022-07-23T05:56:38;19.10;99.90
25138;DHT22;13112;50.986;4.354;2022-07-23T05:59:04;19.20;99.90
25138;DHT22;13112;50.986;4.354;2022-07-23T06:01:29;19.30;99.90
25138;DHT22;13112;50.986;4.354;2022-07-23T06:03:55;19.30;99.90
25138;DHT22;13112;50.986;4.354;2022-07-23T06:06:21;19.20;99.90
25138;DHT22;13112;50.986;4.354;2022-07-23T06:08:48;19.20;99.90
25138;DHT22;13112;50.986;4.354;2022-07-23T06:11:13;19.10;99.90
25138;DHT22;13112;50.986;4.354;2022-07-23T06:13:39;19.20;99.90
25138;DHT22;13112;50.986;4.354;2022-07-23T06:16:05;19.60;99.90
25138;DHT22;13112;50.986;4.354;2022-07-23T06:18:30;20.40;99.90
25138;DHT22;13112;50.986;4.354;2022-07-23T06:20:56;21.10;99.90
25138;DHT22;13112;50.986;4.354;2022-07-23T06:23:21;21.20;99.90
25138;DHT22;13112;50.986;4.354;2022-07-23T06:25:47;21.40;99.90
25138;DHT22;13112;50.986;4.354;2022-07-23T06:28:13;21.90;99.90
25138;DHT22;13112;50.986;4.354;2022-07-23T06:30:38;22.50;99.90
25138;DHT22;13112;50.986;4.354;2022-07-23T06:33:04;21.90;99.90
25138;DHT22;13112;50.986;4.354;2022-07-23T06:35:30;21.80;99.90
25138;DHT22;13112;50.986;4.354;2022-07-23T06:37:55;21.90;99.90
25138;DHT22;13112;50.986;4.354;2022-07-23T06:40:21;22.60;99.90
25138;DHT22;13112;50.986;4.354;2022-07-23T06:42:47;23.60;99.90
25138;DHT22;13112;50.986;4.354;2022-07-23T06:45:12;24.60;99.90
25138;DHT22;13112;50.986;4.354;2022-07-23T06:47:38;25.20;99.90
25138;DHT22;13112;50.986;4.354;2022-07-23T06:50:05;26.10;99.90
25138;DHT22;13112;50.986;4.354;2022-07-23T06:52:31;26.80;99.90
25138;DHT22;13112;50.986;4.354;2022-07-23T06:54:56;27.20;99.90
25138;DHT22;13112;50.986;4.354;2022-07-23T06:57:22;27.10;99.90
25138;DHT22;13112;50.986;4.354;2022-07-23T06:59:48;27.30;99.90
25138;DHT22;13112;50.986;4.354;2022-07-23T07:02:14;27.70;99.90
25138;DHT22;13112;50.986;4.354;2022-07-23T07:04:39;28.20;99.90
25138;DHT22;13112;50.986;4.354;2022-07-23T07:07:05;28.40;99.90
25138;DHT22;13112;50.986;4.354;2022-07-23T07:09:31;28.50;99.90
25138;DHT22;13112;50.986;4.354;2022-07-23T07:11:56;28.80;99.90
25138;DHT22;13112;50.986;4.354;2022-07-23T07:14:22;29.00;99.90
25138;DHT22;13112;50.986;4.354;2022-07-23T07:16:48;29.60;99.90
25138;DHT22;13112;50.986;4.354;2022-07-23T07:19:13;29.50;99.90
25138;DHT22;13112;50.986;4.354;2022-07-23T07:21:39;30.00;99.90
25138;DHT22;13112;50.986;4.354;2022-07-23T07:24:05;30.20;99.90
25138;DHT22;13112;50.986;4.354;2022-07-23T07:26:32;30.20;99.90
25138;DHT22;13112;50.986;4.354;2022-07-23T07:28:57;30.40;99.90
25138;DHT22;13112;50.986;4.354;2022-07-23T07:31:23;31.10;99.90
25138;DHT22;13112;50.986;4.354;2022-07-23T07:33:49;31.60;99.90
25138;DHT22;13112;50.986;4.354;2022-07-23T07:36:14;31.80;99.90
25138;DHT22;13112;50.986;4.354;2022-07-23T07:38:40;32.30;99.90
25138;DHT22;13112;50.986;4.354;2022-07-23T07:41:06;32.60;98.50
25138;DHT22;13112;50.986;4.354;2022-07-23T07:43:33;32.80;97.20
25138;DHT22;13112;50.986;4.354;2022-07-23T07:45:58;32.80;96.60
25138;DHT22;13112;50.986;4.354;2022-07-23T07:48:24;33.30;97.90
25138;DHT22;13112;50.986;4.354;2022-07-23T07:50:51;33.10;98.20
25138;DHT22;13112;50.986;4.354;2022-07-23T07:53:17;32.80;97.80
25138;DHT22;13112;50.986;4.354;2022-07-23T07:55:42;33.30;96.40
25138;DHT22;13112;50.986;4.354;2022-07-23T07:58:08;33.70;95.90
25138;DHT22;13112;50.986;4.354;2022-07-23T08:00:33;34.20;95.70
25138;DHT22;13112;50.986;4.354;2022-07-23T08:02:59;34.20;94.50
25138;DHT22;13112;50.986;4.354;2022-07-23T08:05:28;34.70;94.40
25138;DHT22;13112;50.986;4.354;2022-07-23T08:07:58;34.50;92.50
25138;DHT22;13112;50.986;4.354;2022-07-23T08:10:25;34.70;92.60
25138;DHT22;13112;50.986;4.354;2022-07-23T08:12:53;35.10;92.80
25138;DHT22;13112;50.986;4.354;2022-07-23T08:15:21;35.30;92.30
25138;DHT22;13112;50.986;4.354;2022-07-23T08:17:47;35.60;91.20
25138;DHT22;13112;50.986;4.354;2022-07-23T08:20:14;36.20;91.00
25138;DHT22;13112;50.986;4.354;2022-07-23T08:22:48;35.20;88.00
25138;DHT22;13112;50.986;4.354;2022-07-23T08:25:19;35.10;86.70
25138;DHT22;13112;50.986;4.354;2022-07-23T08:27:45;35.20;87.70
25138;DHT22;13112;50.986;4.354;2022-07-23T08:30:11;35.10;86.50
25138;DHT22;13112;50.986;4.354;2022-07-23T08:33:01;35.60;87.10
25138;DHT22;13112;50.986;4.354;2022-07-23T08:35:33;36.10;85.80
25138;DHT22;13112;50.986;4.354;2022-07-23T08:38:00;36.80;84.60
25138;DHT22;13112;50.986;4.354;2022-07-23T08:40:27;37.50;82.20
25138;DHT22;13112;50.986;4.354;2022-07-23T08:42:54;37.80;76.80
25138;DHT22;13112;50.986;4.354;2022-07-23T08:45:21;37.80;74.00
25138;DHT22;13112;50.986;4.354;2022-07-23T08:47:52;38.00;69.00
25138;DHT22;13112;50.986;4.354;2022-07-23T08:50:19;38.40;68.60
25138;DHT22;13112;50.986;4.354;2022-07-23T08:52:48;38.50;69.30
25138;DHT22;13112;50.986;4.354;2022-07-23T08:55:16;38.90;67.70
25138;DHT22;13112;50.986;4.354;2022-07-23T08:57:42;38.20;68.20
25138;DHT22;13112;50.986;4.354;2022-07-23T09:00:09;38.50;69.90
25138;DHT22;13112;50.986;4.354;2022-07-23T09:02:42;39.00;67.00
25138;DHT22;13112;50.986;4.354;2022-07-23T09:05:13;39.50;63.80
25138;DHT22;13112;50.986;4.354;2022-07-23T09:08:14;40.20;62.00
25138;DHT22;13112;50.986;4.354;2022-07-23T09:10:56;40.20;59.50
25138;DHT22;13112;50.986;4.354;2022-07-23T09:19:00;33.20;72.60
25138;DHT22;13112;50.986;4.354;2022-07-23T09:21:29;34.50;69.90
25138;DHT22;13112;50.986;4.354;2022-07-23T09:26:32;35.60;65.30
25138;DHT22;13112;50.986;4.354;2022-07-23T09:31:45;34.00;67.60
25138;DHT22;13112;50.986;4.354;2022-07-23T09:36:42;37.90;63.60
25138;DHT22;13112;50.986;4.354;2022-07-23T09:39:09;38.30;57.90
25138;DHT22;13112;50.986;4.354;2022-07-23T09:41:43;38.30;58.00
25138;DHT22;13112;50.986;4.354;2022-07-23T09:44:20;38.00;58.70
25138;DHT22;13112;50.986;4.354;2022-07-23T09:46:58;38.40;59.10
25138;DHT22;13112;50.986;4.354;2022-07-23T09:49:24;40.30;59.60
25138;DHT22;13112;50.986;4.354;2022-07-23T09:51:54;41.10;56.90
25138;DHT22;13112;50.986;4.354;2022-07-23T09:54:24;41.80;54.60
25138;DHT22;13112;50.986;4.354;2022-07-23T09:56:51;39.70;53.30
25138;DHT22;13112;50.986;4.354;2022-07-23T09:59:17;38.10;58.50
25138;DHT22;13112;50.986;4.354;2022-07-23T10:01:44;38.20;56.90
25138;DHT22;13112;50.986;4.354;2022-07-23T10:04:11;39.20;57.60
25138;DHT22;13112;50.986;4.354;2022-07-23T10:06:39;40.20;56.40
25138;DHT22;13112;50.986;4.354;2022-07-23T10:09:07;41.00;57.30
25138;DHT22;13112;50.986;4.354;2022-07-23T10:11:33;42.10;53.60
25138;DHT22;13112;50.986;4.354;2022-07-23T10:14:00;43.10;53.30
25138;DHT22;13112;50.986;4.354;2022-07-23T10:16:29;43.40;51.80
25138;DHT22;13112;50.986;4.354;2022-07-23T10:18:55;43.80;48.40
25138;DHT22;13112;50.986;4.354;2022-07-23T10:24:27;42.80;50.20
25138;DHT22;13112;50.986;4.354;2022-07-23T10:30:05;41.90;47.90
25138;DHT22;13112;50.986;4.354;2022-07-23T10:35:31;41.80;47.40
25138;DHT22;13112;50.986;4.354;2022-07-23T10:38:10;38.30;52.10
25138;DHT22;13112;50.986;4.354;2022-07-23T10:40:37;38.50;54.60
25138;DHT22;13112;50.986;4.354;2022-07-23T10:43:15;40.20;51.50
25138;DHT22;13112;50.986;4.354;2022-07-23T10:45:41;40.90;50.20
25138;DHT22;13112;50.986;4.354;2022-07-23T10:48:24;40.50;50.50
25138;DHT22;13112;50.986;4.354;2022-07-23T10:51:24;41.00;51.60
25138;DHT22;13112;50.986;4.354;2022-07-23T10:53:57;42.30;47.90
25138;DHT22;13112;50.986;4.354;2022-07-23T10:59:14;44.20;47.20
25138;DHT22;13112;50.986;4.354;2022-07-23T11:01:40;44.00;46.70
25138;DHT22;13112;50.986;4.354;2022-07-23T11:04:06;43.70;45.20
25138;DHT22;13112;50.986;4.354;2022-07-23T11:17:34;43.60;45.20
25138;DHT22;13112;50.986;4.354;2022-07-23T11:22:39;44.10;43.10
25138;DHT22;13112;50.986;4.354;2022-07-23T11:25:06;44.90;43.30
25138;DHT22;13112;50.986;4.354;2022-07-23T11:27:43;43.90;43.20
25138;DHT22;13112;50.986;4.354;2022-07-23T11:30:11;44.80;44.80
25138;DHT22;13112;50.986;4.354;2022-07-23T11:35:35;44.40;45.70
25138;DHT22;13112;50.986;4.354;2022-07-23T11:38:18;44.50;43.80
25138;DHT22;13112;50.986;4.354;2022-07-23T11:40:52;44.20;44.60
25138;DHT22;13112;50.986;4.354;2022-07-23T11:43:18;43.90;45.10
25138;DHT22;13112;50.986;4.354;2022-07-23T11:45:47;44.40;45.00
25138;DHT22;13112;50.986;4.354;2022-07-23T11:48:22;44.20;42.80
25138;DHT22;13112;50.986;4.354;2022-07-23T11:50:50;44.30;43.50
25138;DHT22;13112;50.986;4.354;2022-07-23T11:53:27;44.20;45.00
25138;DHT22;13112;50.986;4.354;2022-07-23T11:55:53;44.70;44.70
25138;DHT22;13112;50.986;4.354;2022-07-23T11:58:20;44.60;44.10
25138;DHT22;13112;50.986;4.354;2022-07-23T12:00:46;44.00;45.70
25138;DHT22;13112;50.986;4.354;2022-07-23T12:03:12;43.70;45.20
25138;DHT22;13112;50.986;4.354;2022-07-23T12:05:38;43.30;45.80
25138;DHT22;13112;50.986;4.354;2022-07-23T12:08:06;44.10;44.10
25138;DHT22;13112;50.986;4.354;2022-07-23T12:10:38;44.50;42.80
25138;DHT22;13112;50.986;4.354;2022-07-23T12:13:11;43.90;42.70
25138;DHT22;13112;50.986;4.354;2022-07-23T12:15:48;44.90;42.60
25138;DHT22;13112;50.986;4.354;2022-07-23T12:18:23;44.60;42.70
25138;DHT22;13112;50.986;4.354;2022-07-23T12:20:53;44.40;41.60
25138;DHT22;13112;50.986;4.354;2022-07-23T12:23:21;44.50;43.50
25138;DHT22;13112;50.986;4.354;2022-07-23T12:25:48;45.00;42.80
25138;DHT22;13112;50.986;4.354;2022-07-23T12:28:27;45.60;41.70
25138;DHT22;13112;50.986;4.354;2022-07-23T12:30:55;45.60;42.00
25138;DHT22;13112;50.986;4.354;2022-07-23T12:33:32;44.60;42.10
25138;DHT22;13112;50.986;4.354;2022-07-23T12:36:01;43.70;42.30
25138;DHT22;13112;50.986;4.354;2022-07-23T12:38:35;43.20;44.70
25138;DHT22;13112;50.986;4.354;2022-07-23T12:41:01;44.00;42.00
25138;DHT22;13112;50.986;4.354;2022-07-23T12:43:32;44.60;44.50
25138;DHT22;13112;50.986;4.354;2022-07-23T12:46:09;44.90;42.30
25138;DHT22;13112;50.986;4.354;2022-07-23T12:48:39;45.40;41.90
25138;DHT22;13112;50.986;4.354;2022-07-23T12:53:41;45.50;41.60
25138;DHT22;13112;50.986;4.354;2022-07-23T12:56:12;46.00;40.80
25138;DHT22;13112;50.986;4.354;2022-07-23T12:58:56;46.10;40.70
25138;DHT22;13112;50.986;4.354;2022-07-23T13:04:04;45.90;42.10
25138;DHT22;13112;50.986;4.354;2022-07-23T13:06:35;45.50;42.00
25138;DHT22;13112;50.986;4.354;2022-07-23T13:09:05;44.80;41.70
25138;DHT22;13112;50.986;4.354;2022-07-23T13:11:31;45.00;41.50
25138;DHT22;13112;50.986;4.354;2022-07-23T13:13:58;44.60;42.60
25138;DHT22;13112;50.986;4.354;2022-07-23T13:16:26;44.70;43.10
25138;DHT22;13112;50.986;4.354;2022-07-23T13:18:52;44.00;43.40
25138;DHT22;13112;50.986;4.354;2022-07-23T13:21:18;42.60;45.00
25138;DHT22;13112;50.986;4.354;2022-07-23T13:23:50;41.10;47.40
25138;DHT22;13112;50.986;4.354;2022-07-23T13:26:16;40.60;46.80
25138;DHT22;13112;50.986;4.354;2022-07-23T13:28:41;40.30;47.40
25138;DHT22;13112;50.986;4.354;2022-07-23T13:31:07;40.30;48.40
25138;DHT22;13112;50.986;4.354;2022-07-23T13:33:33;40.60;47.40
25138;DHT22;13112;50.986;4.354;2022-07-23T13:35:59;40.50;47.90
25138;DHT22;13112;50.986;4.354;2022-07-23T13:38:25;41.10;47.70
25138;DHT22;13112;50.986;4.354;2022-07-23T13:40:52;41.50;46.60
25138;DHT22;13112;50.986;4.354;2022-07-23T13:43:21;41.70;46.70
25138;DHT22;13112;50.986;4.354;2022-07-23T13:45:47;42.30;45.90
25138;DHT22;13112;50.986;4.354;2022-07-23T13:48:14;41.00;46.30
25138;DHT22;13112;50.986;4.354;2022-07-23T13:50:41;40.90;46.90
25138;DHT22;13112;50.986;4.354;2022-07-23T13:53:10;41.60;45.70
25138;DHT22;13112;50.986;4.354;2022-07-23T13:55:37;42.60;43.90
25138;DHT22;13112;50.986;4.354;2022-07-23T13:58:04;43.00;44.20
25138;DHT22;13112;50.986;4.354;2022-07-23T14:00:31;43.70;43.20
25138;DHT22;13112;50.986;4.354;2022-07-23T14:02:57;43.50;44.20
25138;DHT22;13112;50.986;4.354;2022-07-23T14:05:27;43.20;44.70
25138;DHT22;13112;50.986;4.354;2022-07-23T14:07:53;42.60;45.10
25138;DHT22;13112;50.986;4.354;2022-07-23T14:10:20;41.40;43.90
25138;DHT22;13112;50.986;4.354;2022-07-23T14:12:47;37.30;48.20
25138;DHT22;13112;50.986;4.354;2022-07-23T14:15:14;36.70;49.50
25138;DHT22;13112;50.986;4.354;2022-07-23T14:17:44;36.00;50.70
25138;DHT22;13112;50.986;4.354;2022-07-23T14:20:11;35.50;51.40
25138;DHT22;13112;50.986;4.354;2022-07-23T14:22:37;34.80;55.50
25138;DHT22;13112;50.986;4.354;2022-07-23T14:25:04;34.80;55.20
25138;DHT22;13112;50.986;4.354;2022-07-23T14:27:30;34.80;55.60
25138;DHT22;13112;50.986;4.354;2022-07-23T14:29:56;34.60;56.20
25138;DHT22;13112;50.986;4.354;2022-07-23T14:32:22;34.40;55.70
25138;DHT22;13112;50.986;4.354;2022-07-23T14:34:48;34.20;55.40
25138;DHT22;13112;50.986;4.354;2022-07-23T14:37:15;34.20;57.50
25138;DHT22;13112;50.986;4.354;2022-07-23T14:39:42;34.10;57.80
25138;DHT22;13112;50.986;4.354;2022-07-23T14:42:09;33.50;58.90
25138;DHT22;13112;50.986;4.354;2022-07-23T14:44:35;33.50;57.30
25138;DHT22;13112;50.986;4.354;2022-07-23T14:47:02;33.40;57.10
25138;DHT22;13112;50.986;4.354;2022-07-23T14:49:30;33.50;59.30
25138;DHT22;13112;50.986;4.354;2022-07-23T14:51:56;33.30;60.30
25138;DHT22;13112;50.986;4.354;2022-07-23T14:54:22;33.10;59.80
25138;DHT22;13112;50.986;4.354;2022-07-23T14:56:48;32.80;60.00
25138;DHT22;13112;50.986;4.354;2022-07-23T14:59:14;32.50;61.20
25138;DHT22;13112;50.986;4.354;2022-07-23T15:01:40;32.40;61.20
25138;DHT22;13112;50.986;4.354;2022-07-23T15:04:07;32.30;59.90
25138;DHT22;13112;50.986;4.354;2022-07-23T15:06:33;32.60;60.00
25138;DHT22;13112;50.986;4.354;2022-07-23T15:08:59;32.70;59.40
25138;DHT22;13112;50.986;4.354;2022-07-23T15:11:26;32.90;59.60
25138;DHT22;13112;50.986;4.354;2022-07-23T15:13:52;32.90;58.60
25138;DHT22;13112;50.986;4.354;2022-07-23T15:16:18;32.70;61.20
25138;DHT22;13112;50.986;4.354;2022-07-23T15:18:44;32.50;61.00
25138;DHT22;13112;50.986;4.354;2022-07-23T15:21:09;32.50;60.80
25138;DHT22;13112;50.986;4.354;2022-07-23T15:23:35;32.10;61.50
25138;DHT22;13112;50.986;4.354;2022-07-23T15:26:03;31.80;61.00
25138;DHT22;13112;50.986;4.354;2022-07-23T15:28:29;31.70;60.80
25138;DHT22;13112;50.986;4.354;2022-07-23T15:30:54;31.50;62.90
25138;DHT22;13112;50.986;4.354;2022-07-23T15:33:20;31.50;62.20
25138;DHT22;13112;50.986;4.354;2022-07-23T15:35:46;31.30;62.50
25138;DHT22;13112;50.986;4.354;2022-07-23T15:38:11;31.20;63.80
25138;DHT22;13112;50.986;4.354;2022-07-23T15:40:38;31.20;62.70
25138;DHT22;13112;50.986;4.354;2022-07-23T15:43:03;31.20;63.00
25138;DHT22;13112;50.986;4.354;2022-07-23T15:45:33;31.00;64.20
25138;DHT22;13112;50.986;4.354;2022-07-23T15:47:58;30.80;64.90
25138;DHT22;13112;50.986;4.354;2022-07-23T15:50:24;30.80;64.10
25138;DHT22;13112;50.986;4.354;2022-07-23T15:52:50;30.80;64.90
25138;DHT22;13112;50.986;4.354;2022-07-23T15:55:15;30.90;65.30
25138;DHT22;13112;50.986;4.354;2022-07-23T15:57:41;30.80;64.50
25138;DHT22;13112;50.986;4.354;2022-07-23T16:00:08;30.80;63.20
25138;DHT22;13112;50.986;4.354;2022-07-23T16:02:35;30.80;63.50
25138;DHT22;13112;50.986;4.354;2022-07-23T16:05:00;30.80;63.80
25138;DHT22;13112;50.986;4.354;2022-07-23T16:07:26;31.10;63.30
25138;DHT22;13112;50.986;4.354;2022-07-23T16:09:52;31.20;64.10
25138;DHT22;13112;50.986;4.354;2022-07-23T16:12:18;31.10;63.70
25138;DHT22;13112;50.986;4.354;2022-07-23T16:14:43;31.00;63.40
25138;DHT22;13112;50.986;4.354;2022-07-23T16:17:12;31.00;63.70